sensor_id;sensor_type;location;lat;lon;timestamp;temperature;humidity
10986;DHT22;5546;48.714;8.738;2023-02-15T00:01:35;3.80;93.00
10986;DHT22;5546;48.714;8.738;2023-02-15T00:04:01;3.90;92.50
10986;DHT22;5546;48.714;8.738;2023-02-15T00:06:26;3.90;92.80
10986;DHT22;5546;48.714;8.738;2023-02-15T00:08:53;3.80;92.80
10986;DHT22;5546;48.714;8.738;2023-02-15T00:11:19;3.70;93.10
10986;DHT22;5546;48.714;8.738;2023-02-15T00:14:09;3.50;93.60
10986;DHT22;5546;48.714;8.738;2023-02-15T00:16:36;3.60;93.40
10986;DHT22;5546;48.714;8.738;2023-02-15T00:19:01;3.70;92.50
10986;DHT22;5546;48.714;8.738;2023-02-15T00:21:31;3.80;92.60
10986;DHT22;5546;48.714;8.738;2023-02-15T00:23:59;3.80;92.80
10986;DHT22;5546;48.714;8.738;2023-02-15T00:26:25;3.70;92.40
10986;DHT22;5546;48.714;8.738;2023-02-15T00:28:52;3.60;92.70
10986;DHT22;5546;48.714;8.738;2023-02-15T00:31:18;3.80;92.90
10986;DHT22;5546;48.714;8.738;2023-02-15T00:33:43;3.70;92.70
10986;DHT22;5546;48.714;8.738;2023-02-15T00:36:10;3.40;93.10
10986;DHT22;5546;48.714;8.738;2023-02-15T00:38:36;3.50;93.20
10986;DHT22;5546;48.714;8.738;2023-02-15T00:41:03;3.30;93.50
10986;DHT22;5546;48.714;8.738;2023-02-15T00:43:32;3.80;93.60
10986;DHT22;5546;48.714;8.738;2023-02-15T00:45:58;3.70;92.50
10986;DHT22;5546;48.714;8.738;2023-02-15T00:48:24;3.70;92.80
10986;DHT22;5546;48.714;8.738;2023-02-15T00:50:52;3.70;92.70
10986;DHT22;5546;48.714;8.738;2023-02-15T00:53:18;3.80;92.60
10986;DHT22;5546;48.714;8.738;2023-02-15T00:55:44;3.60;92.70
10986;DHT22;5546;48.714;8.738;2023-02-15T00:58:10;3.30;92.50
10986;DHT22;5546;48.714;8.738;2023-02-15T01:00:37;3.30;92.80
10986;DHT22;5546;48.714;8.738;2023-02-15T01:03:03;3.40;93.00
10986;DHT22;5546;48.714;8.738;2023-02-15T01:05:28;3.30;92.50
10986;DHT22;5546;48.714;8.738;2023-02-15T01:07:58;3.30;92.80
10986;DHT22;5546;48.714;8.738;2023-02-15T01:10:24;3.40;92.40
10986;DHT22;5546;48.714;8.738;2023-02-15T01:12:51;3.30;92.70
10986;DHT22;5546;48.714;8.738;2023-02-15T01:15:17;3.40;93.00
10986;DHT22;5546;48.714;8.738;2023-02-15T01:17:42;3.20;92.80
10986;DHT22;5546;48.714;8.738;2023-02-15T01:20:11;3.20;93.10
10986;DHT22;5546;48.714;8.738;2023-02-15T01:22:37;3.20;93.00
10986;DHT22;5546;48.714;8.738;2023-02-15T01:25:03;3.20;93.00
10986;DHT22;5546;48.714;8.738;2023-02-15T01:27:28;3.30;92.80
10986;DHT22;5546;48.714;8.738;2023-02-15T01:29:56;2.90;92.90
10986;DHT22;5546;48.714;8.738;2023-02-15T01:32:21;2.90;93.20
10986;DHT22;5546;48.714;8.738;2023-02-15T01:34:47;3.10;93.30
10986;DHT22;5546;48.714;8.738;2023-02-15T01:37:12;3.10;93.00
10986;DHT22;5546;48.714;8.738;2023-02-15T01:39:38;3.70;93.10
10986;DHT22;5546;48.714;8.738;2023-02-15T01:42:03;3.20;92.80
10986;DHT22;5546;48.714;8.738;2023-02-15T01:44:54;3.30;92.90
10986;DHT22;5546;48.714;8.738;2023-02-15T01:52:31;3.00;93.10
10986;DHT22;5546;48.714;8.738;2023-02-15T01:54:57;3.20;92.60
10986;DHT22;5546;48.714;8.738;2023-02-15T01:57:25;3.10;92.90
10986;DHT22;5546;48.714;8.738;2023-02-15T01:59:56;3.50;92.30
10986;DHT22;5546;48.714;8.738;2023-02-15T02:02:23;3.20;92.60
10986;DHT22;5546;48.714;8.738;2023-02-15T02:04:53;3.00;93.00
10986;DHT22;5546;48.714;8.738;2023-02-15T02:07:23;3.00;93.00
10986;DHT22;5546;48.714;8.738;2023-02-15T02:09:49;3.10;92.90
10986;DHT22;5546;48.714;8.738;2023-02-15T02:12:16;3.00;92.70
10986;DHT22;5546;48.714;8.738;2023-02-15T02:14:43;3.00;92.70
10986;DHT22;5546;48.714;8.738;2023-02-15T02:25:28;3.00;92.70
10986;DHT22;5546;48.714;8.738;2023-02-15T02:30:35;2.90;92.60
10986;DHT22;5546;48.714;8.738;2023-02-15T02:35:41;2.80;92.70
10986;DHT22;5546;48.714;8.738;2023-02-15T02:38:46;2.80;92.40
10986;DHT22;5546;48.714;8.738;2023-02-15T02:41:36;2.80;92.40
10986;DHT22;5546;48.714;8.738;2023-02-15T02:44:19;3.00;92.20
10986;DHT22;5546;48.714;8.738;2023-02-15T02:49:32;3.10;92.30
10986;DHT22;5546;48.714;8.738;2023-02-15T02:54:47;2.90;92.30
10986;DHT22;5546;48.714;8.738;2023-02-15T02:57:13;2.80;92.50
10986;DHT22;5546;48.714;8.738;2023-02-15T02:59:41;2.60;92.70
10986;DHT22;5546;48.714;8.738;2023-02-15T03:02:17;2.80;92.30
10986;DHT22;5546;48.714;8.738;2023-02-15T03:04:49;2.80;92.60
10986;DHT22;5546;48.714;8.738;2023-02-15T03:07:25;3.00;92.40
10986;DHT22;5546;48.714;8.738;2023-02-15T03:09:55;2.70;92.70
10986;DHT22;5546;48.714;8.738;2023-02-15T03:12:33;2.50;92.50
10986;DHT22;5546;48.714;8.738;2023-02-15T03:15:15;2.50;92.80
10986;DHT22;5546;48.714;8.738;2023-02-15T03:17:44;2.60;93.10
10986;DHT22;5546;48.714;8.738;2023-02-15T03:20:25;2.90;92.20
10986;DHT22;5546;48.714;8.738;2023-02-15T03:22:56;2.40;92.50
10986;DHT22;5546;48.714;8.738;2023-02-15T03:25:42;2.40;93.00
10986;DHT22;5546;48.714;8.738;2023-02-15T03:28:13;2.40;93.20
10986;DHT22;5546;48.714;8.738;2023-02-15T03:30:42;2.20;92.80
10986;DHT22;5546;48.714;8.738;2023-02-15T03:33:09;2.10;93.10
10986;DHT22;5546;48.714;8.738;2023-02-15T03:36:01;2.30;92.50
10986;DHT22;5546;48.714;8.738;2023-02-15T03:38:43;2.30;92.80
10986;DHT22;5546;48.714;8.738;2023-02-15T03:41:11;2.60;92.50
10986;DHT22;5546;48.714;8.738;2023-02-15T03:43:40;2.50;92.60
10986;DHT22;5546;48.714;8.738;2023-02-15T03:49:14;2.40;92.60
10986;DHT22;5546;48.714;8.738;2023-02-15T03:51:44;2.40;92.80
10986;DHT22;5546;48.714;8.738;2023-02-15T03:54:27;2.60;92.40
10986;DHT22;5546;48.714;8.738;2023-02-15T03:57:15;2.30;92.30
10986;DHT22;5546;48.714;8.738;2023-02-15T04:00:00;2.30;92.70
10986;DHT22;5546;48.714;8.738;2023-02-15T04:05:35;2.40;92.40
10986;DHT22;5546;48.714;8.738;2023-02-15T04:08:01;2.30;92.50
10986;DHT22;5546;48.714;8.738;2023-02-15T04:10:26;2.20;92.70
10986;DHT22;5546;48.714;8.738;2023-02-15T04:13:11;2.20;92.50
10986;DHT22;5546;48.714;8.738;2023-02-15T04:15:36;2.30;92.10
10986;DHT22;5546;48.714;8.738;2023-02-15T04:18:20;2.40;92.10
10986;DHT22;5546;48.714;8.738;2023-02-15T04:20:46;2.30;92.30
10986;DHT22;5546;48.714;8.738;2023-02-15T04:23:31;2.70;92.00
10986;DHT22;5546;48.714;8.738;2023-02-15T04:26:15;2.50;92.00
10986;DHT22;5546;48.714;8.738;2023-02-15T04:28:40;2.20;91.90
10986;DHT22;5546;48.714;8.738;2023-02-15T04:31:06;2.30;91.70
10986;DHT22;5546;48.714;8.738;2023-02-15T04:33:31;2.40;91.90
10986;DHT22;5546;48.714;8.738;2023-02-15T04:35:57;2.40;92.10
10986;DHT22;5546;48.714;8.738;2023-02-15T04:38:22;2.60;92.20
10986;DHT22;5546;48.714;8.738;2023-02-15T04:40:52;1.70;92.90
10986;DHT22;5546;48.714;8.738;2023-02-15T04:43:20;1.80;93.40
10986;DHT22;5546;48.714;8.738;2023-02-15T04:45:50;1.90;92.90
10986;DHT22;5546;48.714;8.738;2023-02-15T04:48:16;2.00;93.10
10986;DHT22;5546;48.714;8.738;2023-02-15T04:50:42;1.90;93.10
10986;DHT22;5546;48.714;8.738;2023-02-15T04:53:07;2.00;92.90
10986;DHT22;5546;48.714;8.738;2023-02-15T04:55:33;1.90;92.70
10986;DHT22;5546;48.714;8.738;2023-02-15T04:57:58;2.00;92.70
10986;DHT22;5546;48.714;8.738;2023-02-15T05:00:24;2.00;92.70
10986;DHT22;5546;48.714;8.738;2023-02-15T05:02:49;2.10;92.50
10986;DHT22;5546;48.714;8.738;2023-02-15T05:05:16;2.10;92.20
10986;DHT22;5546;48.714;8.738;2023-02-15T05:07:42;2.10;92.40
10986;DHT22;5546;48.714;8.738;2023-02-15T05:10:08;2.00;92.20
10986;DHT22;5546;48.714;8.738;2023-02-15T05:12:33;2.00;92.80
10986;DHT22;5546;48.714;8.738;2023-02-15T05:14:59;2.10;91.70
10986;DHT22;5546;48.714;8.738;2023-02-15T05:17:24;2.00;92.10
10986;DHT22;5546;48.714;8.738;2023-02-15T05:19:50;2.20;91.30
10986;DHT22;5546;48.714;8.738;2023-02-15T05:22:15;2.20;91.60
10986;DHT22;5546;48.714;8.738;2023-02-15T05:24:41;2.20;91.80
10986;DHT22;5546;48.714;8.738;2023-02-15T05:27:25;2.10;92.00
10986;DHT22;5546;48.714;8.738;2023-02-15T05:30:09;1.90;92.20
10986;DHT22;5546;48.714;8.738;2023-02-15T05:32:37;2.10;91.80
10986;DHT22;5546;48.714;8.738;2023-02-15T05:35:03;2.00;92.00
10986;DHT22;5546;48.714;8.738;2023-02-15T05:37:29;2.10;91.70
10986;DHT22;5546;48.714;8.738;2023-02-15T05:39:54;2.10;92.00
10986;DHT22;5546;48.714;8.738;2023-02-15T05:42:20;1.80;91.70
10986;DHT22;5546;48.714;8.738;2023-02-15T05:44:45;1.80;92.00
10986;DHT22;5546;48.714;8.738;2023-02-15T05:47:11;1.90;92.40
10986;DHT22;5546;48.714;8.738;2023-02-15T05:49:36;2.10;91.70
10986;DHT22;5546;48.714;8.738;2023-02-15T05:52:02;2.10;92.00
10986;DHT22;5546;48.714;8.738;2023-02-15T05:54:28;2.20;91.20
10986;DHT22;5546;48.714;8.738;2023-02-15T05:56:54;2.10;91.30
10986;DHT22;5546;48.714;8.738;2023-02-15T05:59:19;2.10;91.60
10986;DHT22;5546;48.714;8.738;2023-02-15T06:01:45;1.80;91.40
10986;DHT22;5546;48.714;8.738;2023-02-15T06:04:10;2.10;91.50
10986;DHT22;5546;48.714;8.738;2023-02-15T06:06:36;2.10;91.70
10986;DHT22;5546;48.714;8.738;2023-02-15T06:09:01;2.10;91.20
10986;DHT22;5546;48.714;8.738;2023-02-15T06:11:27;2.30;91.10
10986;DHT22;5546;48.714;8.738;2023-02-15T06:13:52;2.30;90.80
10986;DHT22;5546;48.714;8.738;2023-02-15T06:16:18;2.20;91.00
10986;DHT22;5546;48.714;8.738;2023-02-15T06:18:43;2.10;91.20
10986;DHT22;5546;48.714;8.738;2023-02-15T06:21:09;2.10;91.20
10986;DHT22;5546;48.714;8.738;2023-02-15T06:23:34;2.20;91.00
10986;DHT22;5546;48.714;8.738;2023-02-15T06:26:00;2.40;90.70
10986;DHT22;5546;48.714;8.738;2023-02-15T06:28:25;2.30;90.70
10986;DHT22;5546;48.714;8.738;2023-02-15T06:30:51;2.20;90.80
10986;DHT22;5546;48.714;8.738;2023-02-15T06:33:17;2.30;90.80
10986;DHT22;5546;48.714;8.738;2023-02-15T06:35:43;2.30;91.10
10986;DHT22;5546;48.714;8.738;2023-02-15T06:38:09;2.10;90.90
10986;DHT22;5546;48.714;8.738;2023-02-15T06:40:35;2.30;91.00
10986;DHT22;5546;48.714;8.738;2023-02-15T06:43:00;2.30;91.30
10986;DHT22;5546;48.714;8.738;2023-02-15T06:45:26;2.50;91.20
10986;DHT22;5546;48.714;8.738;2023-02-15T06:47:51;2.30;91.00
10986;DHT22;5546;48.714;8.738;2023-02-15T06:50:17;2.00;91.20
10986;DHT22;5546;48.714;8.738;2023-02-15T06:52:42;1.90;91.50
10986;DHT22;5546;48.714;8.738;2023-02-15T06:55:08;1.90;91.80
10986;DHT22;5546;48.714;8.738;2023-02-15T06:57:33;2.10;91.30
10986;DHT22;5546;48.714;8.738;2023-02-15T06:59:59;2.20;91.30
10986;DHT22;5546;48.714;8.738;2023-02-15T07:02:25;2.20;91.60
10986;DHT22;5546;48.714;8.738;2023-02-15T07:04:51;2.40;91.20
10986;DHT22;5546;48.714;8.738;2023-02-15T07:07:16;2.30;91.30
10986;DHT22;5546;48.714;8.738;2023-02-15T07:09:42;2.10;91.50
10986;DHT22;5546;48.714;8.738;2023-02-15T07:12:07;2.10;91.70
10986;DHT22;5546;48.714;8.738;2023-02-15T07:14:52;2.30;91.30
10986;DHT22;5546;48.714;8.738;2023-02-15T07:17:18;2.40;91.20
10986;DHT22;5546;48.714;8.738;2023-02-15T07:19:44;2.40;91.50
10986;DHT22;5546;48.714;8.738;2023-02-15T07:22:09;2.40;91.40
10986;DHT22;5546;48.714;8.738;2023-02-15T07:24:35;2.20;91.40
10986;DHT22;5546;48.714;8.738;2023-02-15T07:27:00;1.70;92.10
10986;DHT22;5546;48.714;8.738;2023-02-15T07:29:26;1.80;92.40
10986;DHT22;5546;48.714;8.738;2023-02-15T07:34:17;2.70;91.30
10986;DHT22;5546;48.714;8.738;2023-02-15T07:36:43;2.90;90.80
10986;DHT22;5546;48.714;8.738;2023-02-15T07:39:11;3.00;91.00
10986;DHT22;5546;48.714;8.738;2023-02-15T07:41:36;3.00;90.70
10986;DHT22;5546;48.714;8.738;2023-02-15T07:44:02;2.40;91.40
10986;DHT22;5546;48.714;8.738;2023-02-15T07:46:28;2.40;91.70
10986;DHT22;5546;48.714;8.738;2023-02-15T07:48:53;2.50;91.60
10986;DHT22;5546;48.714;8.738;2023-02-15T07:51:19;2.50;91.90
10986;DHT22;5546;48.714;8.738;2023-02-15T07:56:13;3.20;91.80
10986;DHT22;5546;48.714;8.738;2023-02-15T07:58:38;4.50;95.50
10986;DHT22;5546;48.714;8.738;2023-02-15T08:01:17;7.50;93.10
10986;DHT22;5546;48.714;8.738;2023-02-15T08:03:43;7.50;93.50
10986;DHT22;5546;48.714;8.738;2023-02-15T08:06:09;8.50;90.20
10986;DHT22;5546;48.714;8.738;2023-02-15T08:08:36;9.40;87.30
10986;DHT22;5546;48.714;8.738;2023-02-15T08:14:07;10.00;76.50
10986;DHT22;5546;48.714;8.738;2023-02-15T08:16:35;9.70;70.70
10986;DHT22;5546;48.714;8.738;2023-02-15T08:19:13;8.40;72.50
10986;DHT22;5546;48.714;8.738;2023-02-15T08:21:42;7.20;75.70
10986;DHT22;5546;48.714;8.738;2023-02-15T08:24:09;7.20;76.40
10986;DHT22;5546;48.714;8.738;2023-02-15T08:26:36;6.70;79.30
10986;DHT22;5546;48.714;8.738;2023-02-15T08:29:02;7.20;79.10
10986;DHT22;5546;48.714;8.738;2023-02-15T08:31:28;7.30;79.70
10986;DHT22;5546;48.714;8.738;2023-02-15T08:33:55;8.20;77.90
10986;DHT22;5546;48.714;8.738;2023-02-15T08:36:23;12.50;69.00
10986;DHT22;5546;48.714;8.738;2023-02-15T08:38:49;12.60;70.00
10986;DHT22;5546;48.714;8.738;2023-02-15T08:41:29;15.10;62.80
10986;DHT22;5546;48.714;8.738;2023-02-15T08:43:57;17.40;56.90
10986;DHT22;5546;48.714;8.738;2023-02-15T08:46:25;19.50;51.50
10986;DHT22;5546;48.714;8.738;2023-02-15T08:48:51;21.00;47.70
10986;DHT22;5546;48.714;8.738;2023-02-15T08:51:21;22.20;44.20
10986;DHT22;5546;48.714;8.738;2023-02-15T08:53:49;23.20;42.50
10986;DHT22;5546;48.714;8.738;2023-02-15T08:56:16;23.20;41.00
10986;DHT22;5546;48.714;8.738;2023-02-15T08:58:42;23.10;41.00
10986;DHT22;5546;48.714;8.738;2023-02-15T09:01:13;21.10;41.90
10986;DHT22;5546;48.714;8.738;2023-02-15T09:03:39;18.80;44.90
10986;DHT22;5546;48.714;8.738;2023-02-15T09:06:06;18.80;45.60
10986;DHT22;5546;48.714;8.738;2023-02-15T09:08:32;16.50;49.70
10986;DHT22;5546;48.714;8.738;2023-02-15T09:11:18;13.80;55.50
10986;DHT22;5546;48.714;8.738;2023-02-15T09:13:56;13.60;56.70
10986;DHT22;5546;48.714;8.738;2023-02-15T09:16:24;12.70;58.50
10986;DHT22;5546;48.714;8.738;2023-02-15T09:18:51;12.60;59.20
10986;DHT22;5546;48.714;8.738;2023-02-15T09:21:19;11.90;62.20
10986;DHT22;5546;48.714;8.738;2023-02-15T09:23:46;10.50;66.50
10986;DHT22;5546;48.714;8.738;2023-02-15T09:26:15;10.20;68.90
10986;DHT22;5546;48.714;8.738;2023-02-15T09:28:41;10.10;69.50
10986;DHT22;5546;48.714;8.738;2023-02-15T09:33:37;8.90;74.00
10986;DHT22;5546;48.714;8.738;2023-02-15T09:36:04;8.50;77.60
10986;DHT22;5546;48.714;8.738;2023-02-15T09:38:30;7.80;80.90
10986;DHT22;5546;48.714;8.738;2023-02-15T09:41:24;7.60;83.60
10986;DHT22;5546;48.714;8.738;2023-02-15T09:44:04;7.40;85.70
10986;DHT22;5546;48.714;8.738;2023-02-15T09:49:24;12.20;73.80
10986;DHT22;5546;48.714;8.738;2023-02-15T09:57:55;17.20;57.80
10986;DHT22;5546;48.714;8.738;2023-02-15T10:09:14;23.20;45.60
10986;DHT22;5546;48.714;8.738;2023-02-15T10:11:59;22.70;44.80
10986;DHT22;5546;48.714;8.738;2023-02-15T10:17:15;23.60;44.50
10986;DHT22;5546;48.714;8.738;2023-02-15T10:22:37;24.80;42.60
10986;DHT22;5546;48.714;8.738;2023-02-15T10:25:16;25.60;41.90
10986;DHT22;5546;48.714;8.738;2023-02-15T10:27:49;26.40;40.60
10986;DHT22;5546;48.714;8.738;2023-02-15T10:30:36;28.00;37.80
10986;DHT22;5546;48.714;8.738;2023-02-15T10:33:14;27.60;37.70
10986;DHT22;5546;48.714;8.738;2023-02-15T10:36:06;27.90;37.30
10986;DHT22;5546;48.714;8.738;2023-02-15T10:38:58;28.10;37.90
10986;DHT22;5546;48.714;8.738;2023-02-15T10:41:38;28.80;37.60
10986;DHT22;5546;48.714;8.738;2023-02-15T10:51:57;29.90;35.50
10986;DHT22;5546;48.714;8.738;2023-02-15T10:57:18;29.40;35.70
10986;DHT22;5546;48.714;8.738;2023-02-15T11:02:55;29.60;35.20
10986;DHT22;5546;48.714;8.738;2023-02-15T11:05:41;30.20;34.60
10986;DHT22;5546;48.714;8.738;2023-02-15T11:08:10;30.30;34.60
10986;DHT22;5546;48.714;8.738;2023-02-15T11:10:41;30.80;33.90
10986;DHT22;5546;48.714;8.738;2023-02-15T11:13:17;30.70;33.80
10986;DHT22;5546;48.714;8.738;2023-02-15T11:15:56;30.30;34.20
10986;DHT22;5546;48.714;8.738;2023-02-15T11:18:32;30.30;33.70
10986;DHT22;5546;48.714;8.738;2023-02-15T11:23:46;29.60;34.80
10986;DHT22;5546;48.714;8.738;2023-02-15T11:26:16;30.00;34.80
10986;DHT22;5546;48.714;8.738;2023-02-15T11:28:54;30.50;32.80
10986;DHT22;5546;48.714;8.738;2023-02-15T11:31:24;30.50;33.40
10986;DHT22;5546;48.714;8.738;2023-02-15T11:34:03;30.00;33.60
10986;DHT22;5546;48.714;8.738;2023-02-15T11:36:37;30.30;32.70
10986;DHT22;5546;48.714;8.738;2023-02-15T11:39:24;30.00;32.80
10986;DHT22;5546;48.714;8.738;2023-02-15T11:41:56;29.20;32.90
10986;DHT22;5546;48.714;8.738;2023-02-15T11:44:24;29.00;33.70
10986;DHT22;5546;48.714;8.738;2023-02-15T11:46:51;27.20;36.10
10986;DHT22;5546;48.714;8.738;2023-02-15T11:49:24;28.00;36.10
10986;DHT22;5546;48.714;8.738;2023-02-15T11:51:53;28.70;34.70
10986;DHT22;5546;48.714;8.738;2023-02-15T11:54:22;28.50;35.10
10986;DHT22;5546;48.714;8.738;2023-02-15T11:59:29;28.90;34.40
10986;DHT22;5546;48.714;8.738;2023-02-15T12:01:56;28.80;34.10
10986;DHT22;5546;48.714;8.738;2023-02-15T12:04:32;28.90;34.20
10986;DHT22;5546;48.714;8.738;2023-02-15T12:07:26;28.20;33.90
10986;DHT22;5546;48.714;8.738;2023-02-15T12:12:31;26.10;37.10
10986;DHT22;5546;48.714;8.738;2023-02-15T12:14:59;25.70;37.70
10986;DHT22;5546;48.714;8.738;2023-02-15T12:17:31;25.30;38.00
10986;DHT22;5546;48.714;8.738;2023-02-15T12:20:00;24.90;39.30
10986;DHT22;5546;48.714;8.738;2023-02-15T12:22:32;24.70;39.50
10986;DHT22;5546;48.714;8.738;2023-02-15T12:25:01;24.80;39.50
10986;DHT22;5546;48.714;8.738;2023-02-15T12:27:30;25.10;39.10
10986;DHT22;5546;48.714;8.738;2023-02-15T12:30:04;25.60;38.50
10986;DHT22;5546;48.714;8.738;2023-02-15T12:32:35;25.80;37.70
10986;DHT22;5546;48.714;8.738;2023-02-15T12:38:22;25.60;38.30
10986;DHT22;5546;48.714;8.738;2023-02-15T12:40:58;25.80;38.30
10986;DHT22;5546;48.714;8.738;2023-02-15T12:46:13;25.10;39.70
10986;DHT22;5546;48.714;8.738;2023-02-15T12:48:39;25.40;38.80
10986;DHT22;5546;48.714;8.738;2023-02-15T12:51:09;26.00;38.40
10986;DHT22;5546;48.714;8.738;2023-02-15T12:53:38;26.10;38.80
10986;DHT22;5546;48.714;8.738;2023-02-15T12:56:06;25.80;38.40
10986;DHT22;5546;48.714;8.738;2023-02-15T12:58:37;25.60;39.20
10986;DHT22;5546;48.714;8.738;2023-02-15T13:03:57;26.00;37.80
10986;DHT22;5546;48.714;8.738;2023-02-15T13:06:26;26.30;37.40
10986;DHT22;5546;48.714;8.738;2023-02-15T13:08:56;25.80;38.10
10986;DHT22;5546;48.714;8.738;2023-02-15T13:11:27;25.80;38.60
10986;DHT22;5546;48.714;8.738;2023-02-15T13:14:02;24.90;39.50
10986;DHT22;5546;48.714;8.738;2023-02-15T13:16:35;25.40;39.40
10986;DHT22;5546;48.714;8.738;2023-02-15T13:19:18;25.90;39.00
10986;DHT22;5546;48.714;8.738;2023-02-15T13:21:51;25.10;39.80
10986;DHT22;5546;48.714;8.738;2023-02-15T13:24:36;23.90;41.30
10986;DHT22;5546;48.714;8.738;2023-02-15T13:27:03;22.40;43.20
10986;DHT22;5546;48.714;8.738;2023-02-15T13:29:31;19.90;45.90
10986;DHT22;5546;48.714;8.738;2023-02-15T13:32:11;19.60;47.00
10986;DHT22;5546;48.714;8.738;2023-02-15T13:34:39;17.20;53.00
10986;DHT22;5546;48.714;8.738;2023-02-15T13:37:20;17.00;53.50
10986;DHT22;5546;48.714;8.738;2023-02-15T13:45:57;14.70;59.70
10986;DHT22;5546;48.714;8.738;2023-02-15T13:48:37;14.30;59.10
10986;DHT22;5546;48.714;8.738;2023-02-15T13:53:57;13.80;61.10
10986;DHT22;5546;48.714;8.738;2023-02-15T13:56:49;13.70;60.90
10986;DHT22;5546;48.714;8.738;2023-02-15T14:07:28;13.20;63.30
10986;DHT22;5546;48.714;8.738;2023-02-15T14:15:41;13.10;65.30
10986;DHT22;5546;48.714;8.738;2023-02-15T14:21:31;13.10;64.50
10986;DHT22;5546;48.714;8.738;2023-02-15T14:24:15;13.10;65.60
10986;DHT22;5546;48.714;8.738;2023-02-15T14:26:57;12.80;64.70
10986;DHT22;5546;48.714;8.738;2023-02-15T14:29:47;13.00;65.50
10986;DHT22;5546;48.714;8.738;2023-02-15T14:32:38;13.00;66.00
10986;DHT22;5546;48.714;8.738;2023-02-15T14:35:14;12.80;66.80
10986;DHT22;5546;48.714;8.738;2023-02-15T14:48:45;12.30;67.50
10986;DHT22;5546;48.714;8.738;2023-02-15T15:02:00;12.30;68.60
10986;DHT22;5546;48.714;8.738;2023-02-15T15:04:32;11.80;72.10
10986;DHT22;5546;48.714;8.738;2023-02-15T15:07:22;11.80;71.70
10986;DHT22;5546;48.714;8.738;2023-02-15T15:15:31;12.10;70.00
10986;DHT22;5546;48.714;8.738;2023-02-15T15:18:10;12.10;70.70
10986;DHT22;5546;48.714;8.738;2023-02-15T15:20:58;12.10;71.50
10986;DHT22;5546;48.714;8.738;2023-02-15T15:23:40;12.10;72.20
10986;DHT22;5546;48.714;8.738;2023-02-15T15:26:24;12.20;71.90
10986;DHT22;5546;48.714;8.738;2023-02-15T15:40:13;11.80;74.70
10986;DHT22;5546;48.714;8.738;2023-02-15T15:43:24;11.60;74.40
10986;DHT22;5546;48.714;8.738;2023-02-15T15:46:52;11.40;76.70
10986;DHT22;5546;48.714;8.738;2023-02-15T15:49:35;11.30;77.40
10986;DHT22;5546;48.714;8.738;2023-02-15T15:52:13;11.00;79.00
10986;DHT22;5546;48.714;8.738;2023-02-15T15:54:40;11.00;79.80
10986;DHT22;5546;48.714;8.738;2023-02-15T15:57:27;11.30;78.70
10986;DHT22;5546;48.714;8.738;2023-02-15T15:59:54;11.60;77.40
10986;DHT22;5546;48.714;8.738;2023-02-15T16:02:20;11.60;77.60
10986;DHT22;5546;48.714;8.738;2023-02-15T16:04:46;11.50;77.20
10986;DHT22;5546;48.714;8.738;2023-02-15T16:10:00;11.90;75.30
10986;DHT22;5546;48.714;8.738;2023-02-15T16:12:37;11.40;77.10
10986;DHT22;5546;48.714;8.738;2023-02-15T16:15:15;11.40;77.80
10986;DHT22;5546;48.714;8.738;2023-02-15T16:17:43;11.20;77.30
10986;DHT22;5546;48.714;8.738;2023-02-15T16:22:49;11.40;76.00
10986;DHT22;5546;48.714;8.738;2023-02-15T16:27:48;11.30;76.40
10986;DHT22;5546;48.714;8.738;2023-02-15T16:30:26;11.20;76.60
10986;DHT22;5546;48.714;8.738;2023-02-15T16:32:54;11.30;77.00
10986;DHT22;5546;48.714;8.738;2023-02-15T16:35:22;10.80;78.00
10986;DHT22;5546;48.714;8.738;2023-02-15T16:37:49;10.90;78.30
10986;DHT22;5546;48.714;8.738;2023-02-15T16:42:50;10.40;78.40
10986;DHT22;5546;48.714;8.738;2023-02-15T16:45:20;10.30;78.90
10986;DHT22;5546;48.714;8.738;2023-02-15T16:47:56;9.90;80.60
10986;DHT22;5546;48.714;8.738;2023-02-15T16:50:32;10.10;80.00
10986;DHT22;5546;48.714;8.738;2023-02-15T16:53:13;9.90;79.90
10986;DHT22;5546;48.714;8.738;2023-02-15T16:55:42;10.10;79.70
10986;DHT22;5546;48.714;8.738;2023-02-15T16:58:14;9.70;80.10
10986;DHT22;5546;48.714;8.738;2023-02-15T17:00:44;9.20;83.30
10986;DHT22;5546;48.714;8.738;2023-02-15T17:05:49;9.70;80.60
10986;DHT22;5546;48.714;8.738;2023-02-15T17:08:30;9.70;81.20
10986;DHT22;5546;48.714;8.738;2023-02-15T17:11:11;9.10;83.20
10986;DHT22;5546;48.714;8.738;2023-02-15T17:14:09;8.70;85.20
10986;DHT22;5546;48.714;8.738;2023-02-15T17:19:03;8.40;87.10
10986;DHT22;5546;48.714;8.738;2023-02-15T17:21:43;8.70;84.50
10986;DHT22;5546;48.714;8.738;2023-02-15T17:24:28;8.50;85.50
10986;DHT22;5546;48.714;8.738;2023-02-15T17:26:59;8.70;84.70
10986;DHT22;5546;48.714;8.738;2023-02-15T17:29:44;8.30;85.80
10986;DHT22;5546;48.714;8.738;2023-02-15T17:32:20;8.40;85.70
10986;DHT22;5546;48.714;8.738;2023-02-15T17:40:19;8.30;85.40
10986;DHT22;5546;48.714;8.738;2023-02-15T17:42:45;7.70;88.30
10986;DHT22;5546;48.714;8.738;2023-02-15T17:45:11;7.90;88.70
10986;DHT22;5546;48.714;8.738;2023-02-15T17:47:36;7.90;89.10
10986;DHT22;5546;48.714;8.738;2023-02-15T17:50:04;8.00;88.60
10986;DHT22;5546;48.714;8.738;2023-02-15T17:57:40;7.70;88.00
10986;DHT22;5546;48.714;8.738;2023-02-15T18:00:07;7.70;88.50
10986;DHT22;5546;48.714;8.738;2023-02-15T18:02:52;7.10;90.10
10986;DHT22;5546;48.714;8.738;2023-02-15T18:05:36;6.80;91.10
10986;DHT22;5546;48.714;8.738;2023-02-15T18:08:26;6.70;91.20
10986;DHT22;5546;48.714;8.738;2023-02-15T18:11:10;7.10;90.60
10986;DHT22;5546;48.714;8.738;2023-02-15T18:16:26;6.70;91.10
10986;DHT22;5546;48.714;8.738;2023-02-15T18:18:54;6.60;91.40
10986;DHT22;5546;48.714;8.738;2023-02-15T18:21:20;6.10;92.30
10986;DHT22;5546;48.714;8.738;2023-02-15T18:23:46;6.10;92.60
10986;DHT22;5546;48.714;8.738;2023-02-15T18:26:17;5.70;93.30
10986;DHT22;5546;48.714;8.738;2023-02-15T18:28:43;6.10;92.70
10986;DHT22;5546;48.714;8.738;2023-02-15T18:31:10;5.90;93.00
10986;DHT22;5546;48.714;8.738;2023-02-15T18:36:03;6.20;93.60
10986;DHT22;5546;48.714;8.738;2023-02-15T18:38:29;6.80;91.90
10986;DHT22;5546;48.714;8.738;2023-02-15T18:43:21;7.30;90.50
10986;DHT22;5546;48.714;8.738;2023-02-15T18:45:46;7.30;90.80
10986;DHT22;5546;48.714;8.738;2023-02-15T18:48:12;7.20;90.60
10986;DHT22;5546;48.714;8.738;2023-02-15T18:50:39;6.80;90.90
10986;DHT22;5546;48.714;8.738;2023-02-15T18:53:06;6.80;91.30
10986;DHT22;5546;48.714;8.738;2023-02-15T18:55:36;6.50;91.20
10986;DHT22;5546;48.714;8.738;2023-02-15T18:58:03;6.60;91.50
10986;DHT22;5546;48.714;8.738;2023-02-15T19:00:31;6.60;91.20
10986;DHT22;5546;48.714;8.738;2023-02-15T19:02:58;6.60;91.50
10986;DHT22;5546;48.714;8.738;2023-02-15T19:05:26;6.70;91.30
10986;DHT22;5546;48.714;8.738;2023-02-15T19:07:52;6.80;91.40
10986;DHT22;5546;48.714;8.738;2023-02-15T19:10:23;6.70;90.90
10986;DHT22;5546;48.714;8.738;2023-02-15T19:12:50;6.70;91.20
10986;DHT22;5546;48.714;8.738;2023-02-15T19:15:36;6.60;91.00
10986;DHT22;5546;48.714;8.738;2023-02-15T19:18:01;6.60;91.30
10986;DHT22;5546;48.714;8.738;2023-02-15T19:20:31;6.80;91.40
10986;DHT22;5546;48.714;8.738;2023-02-15T19:22:58;6.70;91.10
10986;DHT22;5546;48.714;8.738;2023-02-15T19:25:27;6.50;91.20
10986;DHT22;5546;48.714;8.738;2023-02-15T19:27:54;6.70;91.00
10986;DHT22;5546;48.714;8.738;2023-02-15T19:30:25;6.70;91.20
10986;DHT22;5546;48.714;8.738;2023-02-15T19:32:52;6.90;91.00
10986;DHT22;5546;48.714;8.738;2023-02-15T19:35:19;6.90;90.80